EDDS/STR METAR and TAF weather

Enter ICAO airport designator
Station Type Date Time Source
EDDS METAR 2019/06/16 07:50 UTC NOAA

EDDS 160750Z 29006KT 250V330 9999 BKN011 BKN041 16/13 Q1022 BECMG SCT015


Station Type Date Time Source
EDDS Decoded METAR 2019/06/16 07:50 UTC NOAA

Stuttgart-Echterdingen, Germany (EDDS) 48-41N 009-13E 391M
Jun 16, 2019 - 03:50 AM EDT / 2019.06.16 0750 UTC
Wind: from the WNW (290 degrees) at 7 MPH (6 KT) (direction variable):0
Visibility: greater than 7 mile(s):0
Sky conditions: mostly cloudy
Temperature: 60 F (16 C)
Dew Point: 55 F (13 C)
Relative Humidity: 82%
Pressure (altimeter): 30.18 in. Hg (1022 hPa)
ob: EDDS 160750Z 29006KT 250V330 9999 BKN011 BKN041 16/13 Q1022 BECMG SCT015
cycle: 8

Station Type Date Time Source
EDDS TAF 2019/06/16 06:27 UTC NOAA

TAF EDDS 160500Z 1606/1706 26005KT 9999 BKN012 PROB30
TEMPO 1606/1609 4000 RADZ BKN009
BECMG 1607/1610 33006KT BKN025
BECMG 1618/1621 VRB03KT

Example: see airport list